sensor_id;sensor_type;location;lat;lon;timestamp;pressure;altitude;pressure_sealevel;temperature;humidity
75157;BME280;63736;50.076;8.198;2023-01-23T00:01:21;100968.81;;;1.80;100.00
75157;BME280;63736;50.076;8.198;2023-01-23T00:03:49;100964.50;;;1.78;100.00
75157;BME280;63736;50.076;8.198;2023-01-23T00:06:15;100973.34;;;1.75;100.00
75157;BME280;63736;50.076;8.198;2023-01-23T00:08:42;100970.78;;;1.72;100.00
75157;BME280;63736;50.076;8.198;2023-01-23T00:11:11;100977.00;;;1.70;100.00
75157;BME280;63736;50.076;8.198;2023-01-23T00:13:37;100973.56;;;1.66;100.00
75157;BME280;63736;50.076;8.198;2023-01-23T00:16:08;100969.22;;;1.63;100.00
75157;BME280;63736;50.076;8.198;2023-01-23T00:18:34;100972.75;;;1.64;100.00
75157;BME280;63736;50.076;8.198;2023-01-23T00:21:11;100972.75;;;1.62;100.00
75157;BME280;63736;50.076;8.198;2023-01-23T00:23:37;100971.91;;;1.62;100.00
75157;BME280;63736;50.076;8.198;2023-01-23T00:26:07;100971.94;;;1.60;100.00
75157;BME280;63736;50.076;8.198;2023-01-23T00:28:35;100967.56;;;1.59;100.00
75157;BME280;63736;50.076;8.198;2023-01-23T00:31:09;100968.47;;;1.58;100.00
75157;BME280;63736;50.076;8.198;2023-01-23T00:33:37;100966.72;;;1.59;100.00
75157;BME280;63736;50.076;8.198;2023-01-23T00:36:02;100970.22;;;1.59;100.00
75157;BME280;63736;50.076;8.198;2023-01-23T00:38:27;100976.31;;;1.60;100.00
75157;BME280;63736;50.076;8.198;2023-01-23T00:40:53;100971.06;;;1.60;100.00
75157;BME280;63736;50.076;8.198;2023-01-23T00:43:21;100963.09;;;1.63;100.00
75157;BME280;63736;50.076;8.198;2023-01-23T00:45:47;100963.09;;;1.63;100.00
75157;BME280;63736;50.076;8.198;2023-01-23T00:48:12;100967.47;;;1.64;100.00
75157;BME280;63736;50.076;8.198;2023-01-23T00:50:37;100969.19;;;1.65;100.00
75157;BME280;63736;50.076;8.198;2023-01-23T00:53:03;100975.34;;;1.65;100.00
75157;BME280;63736;50.076;8.198;2023-01-23T00:55:28;100976.22;;;1.64;100.00
75157;BME280;63736;50.076;8.198;2023-01-23T00:57:53;100980.66;;;1.64;100.00
75157;BME280;63736;50.076;8.198;2023-01-23T01:00:18;100978.88;;;1.64;100.00
75157;BME280;63736;50.076;8.198;2023-01-23T01:02:44;100986.78;;;1.64;100.00
75157;BME280;63736;50.076;8.198;2023-01-23T01:05:09;100988.56;;;1.62;100.00
75157;BME280;63736;50.076;8.198;2023-01-23T01:07:34;100991.19;;;1.62;100.00
75157;BME280;63736;50.076;8.198;2023-01-23T01:10:00;100986.84;;;1.61;100.00
75157;BME280;63736;50.076;8.198;2023-01-23T01:12:25;100993.88;;;1.61;100.00
75157;BME280;63736;50.076;8.198;2023-01-23T01:14:50;100994.72;;;1.63;100.00
75157;BME280;63736;50.076;8.198;2023-01-23T01:17:16;100995.63;;;1.62;100.00
75157;BME280;63736;50.076;8.198;2023-01-23T01:19:41;100999.09;;;1.64;100.00
75157;BME280;63736;50.076;8.198;2023-01-23T01:22:06;100994.72;;;1.63;100.00
75157;BME280;63736;50.076;8.198;2023-01-23T01:24:33;101000.91;;;1.60;100.00
75157;BME280;63736;50.076;8.198;2023-01-23T01:26:58;100998.28;;;1.60;100.00
75157;BME280;63736;50.076;8.198;2023-01-23T01:29:23;101003.56;;;1.60;100.00
75157;BME280;63736;50.076;8.198;2023-01-23T01:31:48;101005.31;;;1.60;100.00
75157;BME280;63736;50.076;8.198;2023-01-23T01:34:14;101003.59;;;1.59;100.00
75157;BME280;63736;50.076;8.198;2023-01-23T01:36:39;101007.09;;;1.59;100.00
75157;BME280;63736;50.076;8.198;2023-01-23T01:39:04;101011.47;;;1.60;100.00
75157;BME280;63736;50.076;8.198;2023-01-23T01:41:30;101008.81;;;1.60;100.00
75157;BME280;63736;50.076;8.198;2023-01-23T01:43:55;101008.78;;;1.62;100.00
75157;BME280;63736;50.076;8.198;2023-01-23T01:46:26;101011.38;;;1.63;100.00
75157;BME280;63736;50.076;8.198;2023-01-23T01:49:11;101008.75;;;1.63;100.00
75157;BME280;63736;50.076;8.198;2023-01-23T01:51:58;101015.75;;;1.64;100.00
75157;BME280;63736;50.076;8.198;2023-01-23T01:54:31;101009.53;;;1.67;100.00
75157;BME280;63736;50.076;8.198;2023-01-23T01:57:10;101004.31;;;1.65;100.00
75157;BME280;63736;50.076;8.198;2023-01-23T01:59:56;101000.78;;;1.65;100.00
75157;BME280;63736;50.076;8.198;2023-01-23T02:04:56;101015.78;;;1.63;100.00
75157;BME280;63736;50.076;8.198;2023-01-23T02:07:33;101017.56;;;1.61;100.00
75157;BME280;63736;50.076;8.198;2023-01-23T02:10:02;101022.88;;;1.59;100.00
75157;BME280;63736;50.076;8.198;2023-01-23T02:12:28;101022.03;;;1.59;100.00
75157;BME280;63736;50.076;8.198;2023-01-23T02:14:54;101026.41;;;1.58;100.00
75157;BME280;63736;50.076;8.198;2023-01-23T02:17:20;101016.78;;;1.57;100.00
75157;BME280;63736;50.076;8.198;2023-01-23T02:20:18;101017.66;;;1.58;100.00
75157;BME280;63736;50.076;8.198;2023-01-23T02:22:54;101024.66;;;1.59;100.00
75157;BME280;63736;50.076;8.198;2023-01-23T02:25:47;101028.16;;;1.59;100.00
75157;BME280;63736;50.076;8.198;2023-01-23T02:28:16;101022.00;;;1.60;100.00
75157;BME280;63736;50.076;8.198;2023-01-23T02:30:42;101034.28;;;1.60;100.00
75157;BME280;63736;50.076;8.198;2023-01-23T02:35:45;101029.94;;;1.59;100.00
75157;BME280;63736;50.076;8.198;2023-01-23T02:38:11;101044.03;;;1.56;100.00
75157;BME280;63736;50.076;8.198;2023-01-23T02:40:38;101034.34;;;1.57;100.00
75157;BME280;63736;50.076;8.198;2023-01-23T02:43:06;101036.13;;;1.56;100.00
75157;BME280;63736;50.076;8.198;2023-01-23T02:45:32;101026.50;;;1.55;100.00
75157;BME280;63736;50.076;8.198;2023-01-23T02:47:58;101023.06;;;1.52;100.00
75157;BME280;63736;50.076;8.198;2023-01-23T02:50:25;101028.41;;;1.47;100.00
75157;BME280;63736;50.076;8.198;2023-01-23T02:52:50;101018.06;;;1.39;100.00
75157;BME280;63736;50.076;8.198;2023-01-23T02:55:19;101023.38;;;1.36;100.00
75157;BME280;63736;50.076;8.198;2023-01-23T02:57:44;101020.00;;;1.31;100.00
75157;BME280;63736;50.076;8.198;2023-01-23T03:00:10;101028.00;;;1.26;100.00
75157;BME280;63736;50.076;8.198;2023-01-23T03:02:48;101023.72;;;1.21;100.00
75157;BME280;63736;50.076;8.198;2023-01-23T03:05:14;101034.31;;;1.18;100.00
75157;BME280;63736;50.076;8.198;2023-01-23T03:07:39;101033.59;;;1.11;100.00
75157;BME280;63736;50.076;8.198;2023-01-23T03:10:05;101036.28;;;1.06;100.00
75157;BME280;63736;50.076;8.198;2023-01-23T03:12:33;101039.00;;;1.03;100.00
75157;BME280;63736;50.076;8.198;2023-01-23T03:14:59;101046.97;;;0.98;100.00
75157;BME280;63736;50.076;8.198;2023-01-23T03:17:24;101040.91;;;0.95;100.00
75157;BME280;63736;50.076;8.198;2023-01-23T03:19:50;101038.34;;;0.92;100.00
75157;BME280;63736;50.076;8.198;2023-01-23T03:22:15;101037.59;;;0.85;100.00
75157;BME280;63736;50.076;8.198;2023-01-23T03:24:41;101036.81;;;0.80;100.00
75157;BME280;63736;50.076;8.198;2023-01-23T03:27:06;101044.78;;;0.75;100.00
75157;BME280;63736;50.076;8.198;2023-01-23T03:29:31;101043.13;;;0.70;100.00
75157;BME280;63736;50.076;8.198;2023-01-23T03:32:16;101047.63;;;0.64;100.00
75157;BME280;63736;50.076;8.198;2023-01-23T03:34:42;101048.53;;;0.62;100.00
75157;BME280;63736;50.076;8.198;2023-01-23T03:37:10;101052.09;;;0.59;100.00
75157;BME280;63736;50.076;8.198;2023-01-23T03:39:36;101059.16;;;0.56;100.00
75157;BME280;63736;50.076;8.198;2023-01-23T03:42:20;101053.91;;;0.56;100.00
75157;BME280;63736;50.076;8.198;2023-01-23T03:44:46;101058.28;;;0.57;100.00
75157;BME280;63736;50.076;8.198;2023-01-23T03:47:12;101059.09;;;0.60;100.00
75157;BME280;63736;50.076;8.198;2023-01-23T03:49:37;101059.88;;;0.65;100.00
75157;BME280;63736;50.076;8.198;2023-01-23T03:52:03;101061.50;;;0.71;100.00
75157;BME280;63736;50.076;8.198;2023-01-23T03:54:28;101061.47;;;0.74;100.00
75157;BME280;63736;50.076;8.198;2023-01-23T03:56:54;101058.78;;;0.77;100.00
75157;BME280;63736;50.076;8.198;2023-01-23T03:59:19;101058.72;;;0.82;100.00
75157;BME280;63736;50.076;8.198;2023-01-23T04:01:44;101063.03;;;0.85;100.00
75157;BME280;63736;50.076;8.198;2023-01-23T04:04:10;101067.34;;;0.89;100.00
75157;BME280;63736;50.076;8.198;2023-01-23T04:06:35;101066.34;;;0.94;100.00
75157;BME280;63736;50.076;8.198;2023-01-23T04:09:00;101059.28;;;0.98;100.00
75157;BME280;63736;50.076;8.198;2023-01-23T04:11:26;101061.88;;;0.99;100.00
75157;BME280;63736;50.076;8.198;2023-01-23T04:13:52;101061.78;;;1.03;100.00
75157;BME280;63736;50.076;8.198;2023-01-23T04:16:17;101059.16;;;1.03;100.00
75157;BME280;63736;50.076;8.198;2023-01-23T04:18:43;101060.88;;;1.05;100.00
75157;BME280;63736;50.076;8.198;2023-01-23T04:21:08;101059.09;;;1.07;100.00
75157;BME280;63736;50.076;8.198;2023-01-23T04:23:33;101060.78;;;1.10;100.00
75157;BME280;63736;50.076;8.198;2023-01-23T04:25:59;101054.59;;;1.12;100.00
75157;BME280;63736;50.076;8.198;2023-01-23T04:28:25;101056.25;;;1.17;100.00
75157;BME280;63736;50.076;8.198;2023-01-23T04:30:51;101053.56;;;1.20;100.00
75157;BME280;63736;50.076;8.198;2023-01-23T04:33:17;101058.75;;;1.24;100.00
75157;BME280;63736;50.076;8.198;2023-01-23T04:35:58;101056.91;;;1.28;100.00
75157;BME280;63736;50.076;8.198;2023-01-23T04:38:26;101056.00;;;1.30;100.00
75157;BME280;63736;50.076;8.198;2023-01-23T04:40:52;101056.78;;;1.34;100.00
75157;BME280;63736;50.076;8.198;2023-01-23T04:43:17;101062.88;;;1.36;100.00
75157;BME280;63736;50.076;8.198;2023-01-23T04:45:42;101054.94;;;1.39;100.00
75157;BME280;63736;50.076;8.198;2023-01-23T04:48:09;101064.53;;;1.42;100.00
75157;BME280;63736;50.076;8.198;2023-01-23T04:50:35;101060.09;;;1.44;100.00
75157;BME280;63736;50.076;8.198;2023-01-23T04:53:01;101053.88;;;1.46;100.00
75157;BME280;63736;50.076;8.198;2023-01-23T04:55:26;101052.09;;;1.48;100.00
75157;BME280;63736;50.076;8.198;2023-01-23T04:57:52;101060.81;;;1.51;100.00
75157;BME280;63736;50.076;8.198;2023-01-23T05:00:18;101044.97;;;1.54;100.00
75157;BME280;63736;50.076;8.198;2023-01-23T05:02:47;101046.69;;;1.55;100.00
75157;BME280;63736;50.076;8.198;2023-01-23T05:05:13;101037.91;;;1.54;100.00
75157;BME280;63736;50.076;8.198;2023-01-23T05:07:38;101042.34;;;1.54;100.00
75157;BME280;63736;50.076;8.198;2023-01-23T05:10:04;101044.13;;;1.52;100.00
75157;BME280;63736;50.076;8.198;2023-01-23T05:12:30;101038.84;;;1.52;100.00
75157;BME280;63736;50.076;8.198;2023-01-23T05:14:55;101037.06;;;1.54;100.00
75157;BME280;63736;50.076;8.198;2023-01-23T05:17:21;101039.72;;;1.52;100.00
75157;BME280;63736;50.076;8.198;2023-01-23T05:19:46;101044.97;;;1.54;100.00
75157;BME280;63736;50.076;8.198;2023-01-23T05:22:11;101051.06;;;1.56;100.00
75157;BME280;63736;50.076;8.198;2023-01-23T05:24:37;101050.16;;;1.57;100.00
75157;BME280;63736;50.076;8.198;2023-01-23T05:27:02;101057.16;;;1.58;100.00
75157;BME280;63736;50.076;8.198;2023-01-23T05:29:27;101052.72;;;1.60;100.00
75157;BME280;63736;50.076;8.198;2023-01-23T05:31:53;101069.31;;;1.63;100.00
75157;BME280;63736;50.076;8.198;2023-01-23T05:34:18;101069.28;;;1.65;100.00
75157;BME280;63736;50.076;8.198;2023-01-23T05:36:43;101077.13;;;1.68;100.00
75157;BME280;63736;50.076;8.198;2023-01-23T05:39:08;101081.50;;;1.69;100.00
75157;BME280;63736;50.076;8.198;2023-01-23T05:41:34;101084.06;;;1.72;100.00
75157;BME280;63736;50.076;8.198;2023-01-23T05:43:59;101086.66;;;1.74;100.00
75157;BME280;63736;50.076;8.198;2023-01-23T05:46:24;101084.88;;;1.76;100.00
75157;BME280;63736;50.076;8.198;2023-01-23T05:48:50;101088.28;;;1.79;100.00
75157;BME280;63736;50.076;8.198;2023-01-23T05:51:16;101090.00;;;1.80;100.00
75157;BME280;63736;50.076;8.198;2023-01-23T05:53:42;101095.28;;;1.80;100.00
75157;BME280;63736;50.076;8.198;2023-01-23T05:56:08;101102.34;;;1.80;100.00
75157;BME280;63736;50.076;8.198;2023-01-23T05:58:33;101094.47;;;1.78;100.00
75157;BME280;63736;50.076;8.198;2023-01-23T06:01:01;101100.59;;;1.79;100.00
75157;BME280;63736;50.076;8.198;2023-01-23T06:03:26;101104.16;;;1.76;100.00
75157;BME280;63736;50.076;8.198;2023-01-23T06:05:52;101105.94;;;1.76;100.00
75157;BME280;63736;50.076;8.198;2023-01-23T06:08:17;101111.22;;;1.76;100.00
75157;BME280;63736;50.076;8.198;2023-01-23T06:10:42;101105.09;;;1.74;100.00
75157;BME280;63736;50.076;8.198;2023-01-23T06:13:07;101105.06;;;1.75;100.00
75157;BME280;63736;50.076;8.198;2023-01-23T06:15:33;101111.25;;;1.73;100.00
75157;BME280;63736;50.076;8.198;2023-01-23T06:17:58;101111.38;;;1.68;100.00
75157;BME280;63736;50.076;8.198;2023-01-23T06:20:23;101116.66;;;1.68;100.00
75157;BME280;63736;50.076;8.198;2023-01-23T06:22:48;101120.13;;;1.69;100.00
75157;BME280;63736;50.076;8.198;2023-01-23T06:25:14;101124.50;;;1.70;100.00
75157;BME280;63736;50.076;8.198;2023-01-23T06:27:39;101120.09;;;1.70;100.00
75157;BME280;63736;50.076;8.198;2023-01-23T06:30:05;101118.34;;;1.71;100.00
75157;BME280;63736;50.076;8.198;2023-01-23T06:32:30;101117.47;;;1.70;100.00
75157;BME280;63736;50.076;8.198;2023-01-23T06:34:56;101125.38;;;1.70;100.00
75157;BME280;63736;50.076;8.198;2023-01-23T06:37:21;101126.25;;;1.71;100.00
75157;BME280;63736;50.076;8.198;2023-01-23T06:39:46;101127.16;;;1.70;100.00
75157;BME280;63736;50.076;8.198;2023-01-23T06:42:11;101125.38;;;1.70;100.00
75157;BME280;63736;50.076;8.198;2023-01-23T06:44:37;101133.25;;;1.70;100.00
75157;BME280;63736;50.076;8.198;2023-01-23T06:47:02;101134.19;;;1.69;100.00
75157;BME280;63736;50.076;8.198;2023-01-23T06:49:28;101134.19;;;1.69;100.00
75157;BME280;63736;50.076;8.198;2023-01-23T06:51:53;101137.63;;;1.71;100.00
75157;BME280;63736;50.076;8.198;2023-01-23T06:54:18;101138.53;;;1.70;100.00
75157;BME280;63736;50.076;8.198;2023-01-23T06:56:44;101141.16;;;1.72;100.00
75157;BME280;63736;50.076;8.198;2023-01-23T06:59:09;101142.00;;;1.72;100.00
75157;BME280;63736;50.076;8.198;2023-01-23T07:01:35;101148.13;;;1.74;100.00
75157;BME280;63736;50.076;8.198;2023-01-23T07:04:00;101144.63;;;1.74;100.00
75157;BME280;63736;50.076;8.198;2023-01-23T07:06:25;101149.88;;;1.74;100.00
75157;BME280;63736;50.076;8.198;2023-01-23T07:08:50;101156.00;;;1.76;100.00
75157;BME280;63736;50.076;8.198;2023-01-23T07:11:16;101154.19;;;1.78;100.00
75157;BME280;63736;50.076;8.198;2023-01-23T07:13:41;101146.31;;;1.76;100.00
75157;BME280;63736;50.076;8.198;2023-01-23T07:16:06;101152.44;;;1.77;100.00
75157;BME280;63736;50.076;8.198;2023-01-23T07:18:32;101155.91;;;1.79;100.00
75157;BME280;63736;50.076;8.198;2023-01-23T07:20:57;101156.78;;;1.79;100.00
75157;BME280;63736;50.076;8.198;2023-01-23T07:23:23;101160.31;;;1.80;100.00
75157;BME280;63736;50.076;8.198;2023-01-23T07:25:48;101162.91;;;1.81;100.00
75157;BME280;63736;50.076;8.198;2023-01-23T07:28:13;101175.13;;;1.84;100.00
75157;BME280;63736;50.076;8.198;2023-01-23T07:30:39;101168.09;;;1.86;100.00
75157;BME280;63736;50.076;8.198;2023-01-23T07:33:04;101163.63;;;1.88;100.00
75157;BME280;63736;50.076;8.198;2023-01-23T07:35:30;101156.59;;;1.89;100.00
75157;BME280;63736;50.076;8.198;2023-01-23T07:37:55;101159.16;;;1.92;100.00
75157;BME280;63736;50.076;8.198;2023-01-23T07:40:21;101160.91;;;1.93;100.00
75157;BME280;63736;50.076;8.198;2023-01-23T07:42:46;101175.75;;;1.97;100.00
75157;BME280;63736;50.076;8.198;2023-01-23T07:45:12;101171.31;;;1.97;100.00
75157;BME280;63736;50.076;8.198;2023-01-23T07:47:37;101173.94;;;1.99;100.00
75157;BME280;63736;50.076;8.198;2023-01-23T07:50:10;101178.34;;;1.98;100.00
75157;BME280;63736;50.076;8.198;2023-01-23T07:52:36;101183.56;;;2.00;100.00
75157;BME280;63736;50.076;8.198;2023-01-23T07:55:02;101189.69;;;2.02;100.00
75157;BME280;63736;50.076;8.198;2023-01-23T07:57:28;101194.09;;;2.02;100.00
75157;BME280;63736;50.076;8.198;2023-01-23T07:59:53;101194.09;;;2.02;100.00
75157;BME280;63736;50.076;8.198;2023-01-23T08:02:18;101204.53;;;2.06;100.00
75157;BME280;63736;50.076;8.198;2023-01-23T08:04:44;101209.72;;;2.09;100.00
75157;BME280;63736;50.076;8.198;2023-01-23T08:07:09;101215.91;;;2.08;100.00
75157;BME280;63736;50.076;8.198;2023-01-23T08:09:34;101220.22;;;2.12;100.00
75157;BME280;63736;50.076;8.198;2023-01-23T08:12:00;101219.31;;;2.13;100.00
75157;BME280;63736;50.076;8.198;2023-01-23T08:14:25;101220.16;;;2.15;100.00
75157;BME280;63736;50.076;8.198;2023-01-23T08:16:51;101229.78;;;2.17;100.00
75157;BME280;63736;50.076;8.198;2023-01-23T08:19:17;101228.88;;;2.19;100.00
75157;BME280;63736;50.076;8.198;2023-01-23T08:21:44;101228.78;;;2.22;100.00
75157;BME280;63736;50.076;8.198;2023-01-23T08:24:13;101228.69;;;2.27;100.00
75157;BME280;63736;50.076;8.198;2023-01-23T08:26:39;101226.81;;;2.32;100.00
75157;BME280;63736;50.076;8.198;2023-01-23T08:29:04;101238.06;;;2.40;100.00
75157;BME280;63736;50.076;8.198;2023-01-23T08:31:30;101232.66;;;2.46;100.00
75157;BME280;63736;50.076;8.198;2023-01-23T08:33:55;101230.75;;;2.53;100.00
75157;BME280;63736;50.076;8.198;2023-01-23T08:36:21;101235.91;;;2.58;100.00
75157;BME280;63736;50.076;8.198;2023-01-23T08:38:47;101231.38;;;2.64;100.00
75157;BME280;63736;50.076;8.198;2023-01-23T08:41:12;101234.81;;;2.68;100.00
75157;BME280;63736;50.076;8.198;2023-01-23T08:43:38;101236.50;;;2.71;100.00
75157;BME280;63736;50.076;8.198;2023-01-23T08:46:05;101242.59;;;2.73;100.00
75157;BME280;63736;50.076;8.198;2023-01-23T08:48:31;101230.34;;;2.70;100.00
75157;BME280;63736;50.076;8.198;2023-01-23T08:51:00;101240.00;;;2.71;100.00
75157;BME280;63736;50.076;8.198;2023-01-23T08:53:26;101235.78;;;2.64;100.00
75157;BME280;63736;50.076;8.198;2023-01-23T08:55:52;101252.50;;;2.63;100.00
75157;BME280;63736;50.076;8.198;2023-01-23T08:58:18;101252.50;;;2.63;100.00
75157;BME280;63736;50.076;8.198;2023-01-23T09:00:44;101256.91;;;2.62;100.00
75157;BME280;63736;50.076;8.198;2023-01-23T09:03:09;101256.88;;;2.64;100.00
75157;BME280;63736;50.076;8.198;2023-01-23T09:05:35;101254.97;;;2.71;100.00
75157;BME280;63736;50.076;8.198;2023-01-23T09:08:00;101251.31;;;2.76;100.00
75157;BME280;63736;50.076;8.198;2023-01-23T09:10:26;101254.03;;;2.72;100.00
75157;BME280;63736;50.076;8.198;2023-01-23T09:12:52;101246.13;;;2.72;100.00
75157;BME280;63736;50.076;8.198;2023-01-23T09:15:18;101246.13;;;2.73;100.00
75157;BME280;63736;50.076;8.198;2023-01-23T09:17:44;101245.94;;;2.79;100.00
75157;BME280;63736;50.076;8.198;2023-01-23T09:20:09;101250.31;;;2.80;100.00
75157;BME280;63736;50.076;8.198;2023-01-23T09:22:35;101251.22;;;2.79;100.00
75157;BME280;63736;50.076;8.198;2023-01-23T09:25:00;101257.53;;;2.74;100.00
75157;BME280;63736;50.076;8.198;2023-01-23T09:27:26;101254.09;;;2.70;100.00
75157;BME280;63736;50.076;8.198;2023-01-23T09:29:51;101258.56;;;2.67;100.00
75157;BME280;63736;50.076;8.198;2023-01-23T09:32:16;101266.47;;;2.67;100.00
75157;BME280;63736;50.076;8.198;2023-01-23T09:34:42;101259.41;;;2.69;100.00
75157;BME280;63736;50.076;8.198;2023-01-23T09:37:07;101263.06;;;2.63;100.00
75157;BME280;63736;50.076;8.198;2023-01-23T09:39:32;101269.31;;;2.59;100.00
75157;BME280;63736;50.076;8.198;2023-01-23T09:42:01;101273.03;;;2.50;100.00
75157;BME280;63736;50.076;8.198;2023-01-23T09:44:41;101282.75;;;2.46;100.00
75157;BME280;63736;50.076;8.198;2023-01-23T09:47:27;101284.59;;;2.43;100.00
75157;BME280;63736;50.076;8.198;2023-01-23T09:50:02;101275.84;;;2.42;100.00
75157;BME280;63736;50.076;8.198;2023-01-23T09:52:35;101281.06;;;2.44;100.00
75157;BME280;63736;50.076;8.198;2023-01-23T09:55:24;101279.44;;;2.38;100.00
75157;BME280;63736;50.076;8.198;2023-01-23T09:57:56;101276.09;;;2.30;100.00
75157;BME280;63736;50.076;8.198;2023-01-23T10:00:25;101277.78;;;2.34;100.00
75157;BME280;63736;50.076;8.198;2023-01-23T10:02:51;101276.84;;;2.35;100.00
75157;BME280;63736;50.076;8.198;2023-01-23T10:05:28;101281.22;;;2.36;100.00
75157;BME280;63736;50.076;8.198;2023-01-23T10:08:17;101264.59;;;2.33;100.00
75157;BME280;63736;50.076;8.198;2023-01-23T10:10:57;101274.22;;;2.35;100.00
75157;BME280;63736;50.076;8.198;2023-01-23T10:18:52;101262.66;;;2.80;100.00
75157;BME280;63736;50.076;8.198;2023-01-23T10:21:40;101263.28;;;2.90;100.00
75157;BME280;63736;50.076;8.198;2023-01-23T10:27:04;101255.81;;;3.09;100.00
75157;BME280;63736;50.076;8.198;2023-01-23T10:29:38;101258.16;;;3.20;100.00
75157;BME280;63736;50.076;8.198;2023-01-23T10:32:19;101262.44;;;3.25;100.00
75157;BME280;63736;50.076;8.198;2023-01-23T10:34:52;101258.63;;;3.37;100.00
75157;BME280;63736;50.076;8.198;2023-01-23T10:40:04;101260.91;;;3.51;100.00
75157;BME280;63736;50.076;8.198;2023-01-23T10:42:31;101263.59;;;3.48;100.00
75157;BME280;63736;50.076;8.198;2023-01-23T10:44:57;101263.66;;;3.46;100.00
75157;BME280;63736;50.076;8.198;2023-01-23T10:47:33;101254.69;;;3.52;100.00
75157;BME280;63736;50.076;8.198;2023-01-23T10:49:59;101262.59;;;3.52;100.00
75157;BME280;63736;50.076;8.198;2023-01-23T10:52:32;101260.66;;;3.59;100.00
75157;BME280;63736;50.076;8.198;2023-01-23T10:54:58;101257.75;;;3.70;100.00
75157;BME280;63736;50.076;8.198;2023-01-23T10:57:26;101245.00;;;3.84;100.00
75157;BME280;63736;50.076;8.198;2023-01-23T11:00:06;101245.59;;;3.94;100.00
75157;BME280;63736;50.076;8.198;2023-01-23T11:02:43;101244.59;;;4.00;100.00
75157;BME280;63736;50.076;8.198;2023-01-23T11:05:34;101253.41;;;3.99;98.37
75157;BME280;63736;50.076;8.198;2023-01-23T11:07:59;101235.25;;;3.86;94.48
75157;BME280;63736;50.076;8.198;2023-01-23T11:10:24;101239.84;;;3.79;93.75
75157;BME280;63736;50.076;8.198;2023-01-23T11:12:52;101237.25;;;3.78;94.51
75157;BME280;63736;50.076;8.198;2023-01-23T11:17:52;101241.31;;;3.90;96.10
75157;BME280;63736;50.076;8.198;2023-01-23T11:20:36;101248.19;;;3.97;94.97
75157;BME280;63736;50.076;8.198;2023-01-23T11:23:11;101249.09;;;3.96;95.03
75157;BME280;63736;50.076;8.198;2023-01-23T11:25:46;101236.59;;;4.01;95.25
75157;BME280;63736;50.076;8.198;2023-01-23T11:31:14;101243.91;;;3.91;93.60
75157;BME280;63736;50.076;8.198;2023-01-23T11:33:56;101247.22;;;4.00;94.42
75157;BME280;63736;50.076;8.198;2023-01-23T11:39:19;101234.53;;;4.11;94.44
75157;BME280;63736;50.076;8.198;2023-01-23T11:41:48;101247.13;;;4.03;92.96
75157;BME280;63736;50.076;8.198;2023-01-23T11:44:21;101237.88;;;3.86;91.80
75157;BME280;63736;50.076;8.198;2023-01-23T11:58:08;101222.97;;;3.85;94.65
75157;BME280;63736;50.076;8.198;2023-01-23T12:04:05;101215.78;;;3.89;96.95
75157;BME280;63736;50.076;8.198;2023-01-23T12:06:53;101220.78;;;4.00;97.70
75157;BME280;63736;50.076;8.198;2023-01-23T12:09:23;101219.03;;;3.99;96.10
75157;BME280;63736;50.076;8.198;2023-01-23T12:12:14;101205.09;;;3.93;95.68
75157;BME280;63736;50.076;8.198;2023-01-23T12:17:37;101208.31;;;3.73;96.12
75157;BME280;63736;50.076;8.198;2023-01-23T12:20:21;101203.31;;;3.62;97.48
75157;BME280;63736;50.076;8.198;2023-01-23T12:25:36;101199.91;;;3.59;99.56
75157;BME280;63736;50.076;8.198;2023-01-23T12:31:05;101191.47;;;3.44;100.00
75157;BME280;63736;50.076;8.198;2023-01-23T12:41:54;101180.00;;;3.45;100.00
75157;BME280;63736;50.076;8.198;2023-01-23T12:47:32;101178.16;;;3.49;100.00
75157;BME280;63736;50.076;8.198;2023-01-23T12:50:15;101174.53;;;3.53;100.00
75157;BME280;63736;50.076;8.198;2023-01-23T12:52:48;101176.94;;;3.61;100.00
75157;BME280;63736;50.076;8.198;2023-01-23T12:55:21;101179.38;;;3.69;100.00
75157;BME280;63736;50.076;8.198;2023-01-23T12:57:51;101177.47;;;3.74;100.00
75157;BME280;63736;50.076;8.198;2023-01-23T13:08:38;101169.66;;;3.69;100.00
75157;BME280;63736;50.076;8.198;2023-01-23T13:14:37;101165.09;;;3.76;100.00
75157;BME280;63736;50.076;8.198;2023-01-23T13:17:28;101156.09;;;3.82;100.00
75157;BME280;63736;50.076;8.198;2023-01-23T13:20:17;101153.41;;;3.83;100.00
75157;BME280;63736;50.076;8.198;2023-01-23T13:23:30;101148.13;;;3.83;100.00
75157;BME280;63736;50.076;8.198;2023-01-23T13:28:41;101143.59;;;3.87;100.00
75157;BME280;63736;50.076;8.198;2023-01-23T13:33:51;101141.59;;;3.95;100.00
75157;BME280;63736;50.076;8.198;2023-01-23T13:36:43;101141.41;;;4.01;100.00
75157;BME280;63736;50.076;8.198;2023-01-23T13:41:37;101143.88;;;4.07;100.00
75157;BME280;63736;50.076;8.198;2023-01-23T13:44:14;101134.97;;;4.10;100.00
75157;BME280;63736;50.076;8.198;2023-01-23T13:49:43;101133.19;;;4.10;100.00
75157;BME280;63736;50.076;8.198;2023-01-23T13:52:40;101137.47;;;4.14;100.00
75157;BME280;63736;50.076;8.198;2023-01-23T13:55:28;101132.91;;;4.20;100.00
75157;BME280;63736;50.076;8.198;2023-01-23T13:58:16;101143.41;;;4.23;100.00
75157;BME280;63736;50.076;8.198;2023-01-23T14:03:52;101146.53;;;4.36;100.00
75157;BME280;63736;50.076;8.198;2023-01-23T14:06:48;101150.88;;;4.37;100.00
75157;BME280;63736;50.076;8.198;2023-01-23T14:09:25;101148.47;;;4.29;100.00
75157;BME280;63736;50.076;8.198;2023-01-23T14:12:11;101155.91;;;4.16;100.00
75157;BME280;63736;50.076;8.198;2023-01-23T14:14:37;101151.75;;;4.09;100.00
75157;BME280;63736;50.076;8.198;2023-01-23T14:17:23;101155.47;;;4.03;100.00
75157;BME280;63736;50.076;8.198;2023-01-23T14:19:59;101146.88;;;3.95;100.00
75157;BME280;63736;50.076;8.198;2023-01-23T14:22:29;101152.34;;;3.89;100.00
75157;BME280;63736;50.076;8.198;2023-01-23T14:24:55;101155.19;;;3.83;100.00